Flight Track Log - Related Links

Times and Time Zones

All times are in EDT time to prevent confusion due to time zone crossing. See the DAL258 flight status page for this flight to view local times or setup timezone preferences in your user account.

Time Position Orientation Groundspeed Altitude Reporting Facility
EDT Latitude Longitude Course Direction KTS MPH feet Rate Location/Type
Mon 09:44:06 AM 32.7508 -117.2669 251° West 196 226 2,000  Level Los Angeles Center
Mon 09:45:06 AM 32.7333 -117.3261 152° Southeast 204 235 4,200 2,529 Climbing Los Angeles Center
Mon 09:46:07 AM 32.6733 -117.2883 114° Southeast 129 148 7,100 2,650 Climbing Los Angeles Center
Mon 09:47:06 AM 32.6447 -117.2114 99° East 160 184 9,500 1,950 Climbing Los Angeles Center
Mon 09:48:07 AM 32.6331 -117.1250 100° East 226 260 11,000 1,884 Climbing Los Angeles Center
Mon 09:49:07 AM 32.6172 -117.0186 91° East 279 321 13,300 2,550 Climbing Los Angeles Center
Mon 09:50:07 AM 32.6158 -116.9128 78° East 310 357 16,100 2,250 Climbing Los Angeles Center
Mon 09:51:07 AM 32.6353 -116.8019 29° Northeast 321 369 17,800 1,250 Climbing Los Angeles Center
Mon 09:52:07 AM 32.7317 -116.7383 27° Northeast 325 374 18,600 1,500 Climbing Los Angeles Center
Mon 09:54:07 AM 32.9597 -116.6014 30° Northeast 409 471 22,300 1,400 Climbing Los Angeles Center
Mon 09:55:07 AM 33.0686 -116.5278 28° Northeast 435 501 22,800 850 Climbing Los Angeles Center
Mon 09:56:07 AM 33.1794 -116.4561 29° Northeast 447 514 24,000 1,250 Climbing Los Angeles Center
Mon 09:57:07 AM 33.2922 -116.3822 30° Northeast 447 514 25,300 1,400 Climbing Los Angeles Center
Mon 09:58:07 AM 33.4050 -116.3053 46° Northeast 457 526 26,800 1,200 Climbing Los Angeles Center
Mon 09:59:07 AM 33.4928 -116.1958 48° Northeast 447 514 27,700 1,000 Climbing Los Angeles Center
Mon 10:00:07 AM 33.5806 -116.0789 48° Northeast 447 514 28,800 650 Climbing Los Angeles Center
Mon 10:01:07 AM 33.6661 -115.9664 48° Northeast 452 520 29,000 100 Climbing Los Angeles Center
Mon 10:02:07 AM 33.7514 -115.8514 48° Northeast 452 520 29,000  Level Los Angeles Center
Mon 10:03:07 AM 33.8386 -115.7361 48° Northeast 457 526 29,000 -50 Level Los Angeles Center
Mon 10:04:07 AM 33.9258 -115.6206 49° Northeast 457 526 28,900 -50 Descending Los Angeles Center
Mon 10:05:07 AM 34.0131 -115.4997 48° Northeast 464 534 28,900 350 Level Los Angeles Center
Mon 10:06:07 AM 34.1000 -115.3836 51° Northeast 469 540 29,600 1,100 Climbing Los Angeles Center
Mon 10:07:07 AM 34.1828 -115.2600 51° Northeast 469 540 31,100 1,950 Climbing Los Angeles Center
Mon 10:08:07 AM 34.2569 -115.1486 50° Northeast 456 525 33,500 1,300 Climbing Los Angeles Center
Mon 10:09:07 AM 34.3356 -115.0369 50° Northeast 434 499 33,700 200 Climbing Los Angeles Center
Mon 10:10:07 AM 34.4158 -114.9225 52° Northeast 434 499 33,900 350 Climbing Los Angeles Center
Mon 10:11:07 AM 34.4939 -114.8031 51° Northeast 434 499 34,400 500 Climbing Los Angeles Center
Mon 10:12:07 AM 34.5739 -114.6833 51° Northeast 450 518 34,900 300 Climbing Los Angeles Center
Mon 10:13:07 AM 34.6558 -114.5606 51° Northeast 455 524 35,000 50 Climbing Los Angeles Center
Mon 10:14:07 AM 34.7356 -114.4403 51° Northeast 460 529 35,000  Level Los Angeles Center
Mon 10:15:07 AM 34.8153 -114.3197 50° Northeast 455 524 35,000  Level Los Angeles Center
Mon 10:16:07 AM 34.8928 -114.2067 51° Northeast 460 529 35,000  Level Los Angeles Center
Mon 10:17:07 AM 34.9722 -114.0856 51° Northeast 460 529 35,000  Level Los Angeles Center
Mon 10:18:07 AM 35.0536 -113.9644 51° Northeast 455 524 35,000  Level Los Angeles Center
Mon 10:19:07 AM 35.1389 -113.8353 51° Northeast 444 511 35,000  Level Los Angeles Center
Mon 10:20:07 AM 35.2181 -113.7136 52° Northeast 449 517 35,000  Level Los Angeles Center
Mon 10:21:07 AM 35.2989 -113.5889 51° Northeast 454 522 35,000  Level Los Angeles Center
Mon 10:22:07 AM 35.3800 -113.4667 52° Northeast 454 522 35,000  Level Los Angeles Center
Mon 10:23:07 AM 35.4606 -113.3417 51° Northeast 454 522 35,000  Level Los Angeles Center
Mon 10:24:07 AM 35.5311 -113.2347 52° Northeast 459 528 35,000  Level Los Angeles Center
Mon 10:25:07 AM 35.6094 -113.1119 51° Northeast 453 521 35,000  Level Los Angeles Center
Mon 10:26:07 AM 35.6939 -112.9833 52° Northeast 448 516 35,000  Level Los Angeles Center
Mon 10:27:07 AM 35.7700 -112.8628 52° Northeast 448 516 35,000  Level Los Angeles Center
Mon 10:28:07 AM 35.8461 -112.7444 52° Northeast 448 516 35,000  Level Los Angeles Center
Mon 10:29:07 AM 35.9219 -112.6233 53° Northeast 448 516 35,000  Level Los Angeles Center
Mon 10:30:07 AM 35.9897 -112.5125 52° Northeast 453 521 35,000  Level Los Angeles Center
Mon 10:31:07 AM 36.0672 -112.3908 52° Northeast 453 521 35,000  Level Los Angeles Center
Mon 10:32:56 AM 36.2022 -112.1736 53° Northeast 459 528 35,000  Level Denver Center
Mon 10:33:56 AM 36.2772 -112.0506 52° Northeast 453 521 35,000  Level Denver Center
Mon 10:34:56 AM 36.3519 -111.9300 53° Northeast 446 513 35,000  Level Denver Center
Mon 10:35:56 AM 36.4264 -111.8092 52° Northeast 446 513 35,000  Level Denver Center
Mon 10:36:56 AM 36.5097 -111.6758 52° Northeast 446 513 35,000  Level Denver Center
Mon 10:37:56 AM 36.5864 -111.5519 52° Northeast 446 513 35,000 50 Level Denver Center
Mon 10:38:56 AM 36.6647 -111.4256 53° Northeast 446 513 35,100  Climbing Denver Center
Mon 10:39:56 AM 36.7389 -111.3011 53° Northeast 446 513 35,000 -50 Descending Denver Center
Mon 10:40:56 AM 36.8150 -111.1764 53° Northeast 446 513 35,000  Level Denver Center
Mon 10:41:56 AM 36.8889 -111.0542 52° Northeast 446 513 35,000  Level Denver Center
Mon 10:42:56 AM 36.9644 -110.9342 54° Northeast 446 513 35,000  Level Denver Center
Mon 10:43:56 AM 37.0292 -110.8239 52° Northeast 446 513 35,000  Level Denver Center
Mon 10:44:56 AM 37.1047 -110.7008 54° Northeast 446 513 35,000  Level Denver Center
Mon 10:45:56 AM 37.1783 -110.5747 53° Northeast 446 513 35,000  Level Denver Center
Mon 10:46:56 AM 37.2514 -110.4539 53° Northeast 446 513 35,000  Level Denver Center
Mon 10:47:56 AM 37.3244 -110.3300 54° Northeast 446 513 35,000  Level Denver Center
Mon 10:48:56 AM 37.3972 -110.2058 51° Northeast 446 513 35,000  Level Denver Center
Mon 10:49:56 AM 37.4808 -110.0742 54° Northeast 439 505 35,000  Level Denver Center
Mon 10:50:56 AM 37.5469 -109.9597 53° Northeast 449 517 35,000  Level Denver Center
Mon 10:51:56 AM 37.6236 -109.8322 54° Northeast 449 517 35,000  Level Denver Center
Mon 10:52:56 AM 37.7072 -109.6892 53° Northeast 454 522 35,000  Level Denver Center
Mon 10:53:56 AM 37.7836 -109.5589 54° Northeast 454 522 35,000  Level Denver Center
Mon 10:54:56 AM 37.8492 -109.4433 54° Northeast 454 522 35,000  Level Denver Center
Mon 10:55:56 AM 37.9233 -109.3147 54° Northeast 454 522 35,000  Level Denver Center
Mon 10:56:56 AM 38.0042 -109.1731 55° Northeast 454 522 35,000  Level Denver Center
Mon 10:57:56 AM 38.0736 -109.0467 54° Northeast 449 517 35,000  Level Denver Center
Mon 10:58:56 AM 38.1408 -108.9303 55° Northeast 449 517 35,000  Level Denver Center
Mon 10:59:56 AM 38.2211 -108.7850 54° Northeast 449 517 35,000  Level Denver Center
Mon 11:00:56 AM 38.2925 -108.6578 55° Northeast 449 517 35,000  Level Denver Center
Mon 11:01:56 AM 38.3572 -108.5406 54° Northeast 444 511 35,000  Level Denver Center
Mon 11:02:56 AM 38.4281 -108.4156 55° Northeast 439 505 35,000  Level Denver Center
Mon 11:03:56 AM 38.5056 -108.2744 54° Northeast 439 505 35,000  Level Denver Center
Mon 11:04:56 AM 38.5783 -108.1461 55° Northeast 439 505 35,000  Level Denver Center
Mon 11:05:56 AM 38.6425 -108.0281 55° Northeast 444 511 35,000  Level Denver Center
Mon 11:06:56 AM 38.7194 -107.8886 55° Northeast 444 511 35,000  Level Denver Center
Mon 11:07:56 AM 38.7897 -107.7597 55° Northeast 444 511 35,000  Level Denver Center
Mon 11:08:56 AM 38.8581 -107.6328 55° Northeast 439 505 35,000  Level Denver Center
Mon 11:09:56 AM 38.9217 -107.5167 54° Northeast 439 505 35,000  Level Denver Center
Mon 11:10:56 AM 38.9958 -107.3842 55° Northeast 427 491 35,000  Level Denver Center
Mon 11:11:56 AM 39.0633 -107.2594 56° Northeast 427 491 35,000  Level Denver Center
Mon 11:12:56 AM 39.1225 -107.1450 55° Northeast 427 491 35,000 50 Level Denver Center
Mon 11:13:56 AM 39.1919 -107.0169 56° Northeast 427 491 35,100 50 Climbing Denver Center
Mon 11:14:56 AM 39.2656 -106.8781 55° Northeast 420 483 35,100 -50 Level Denver Center
Mon 11:15:56 AM 39.3347 -106.7497 56° Northeast 420 483 35,000 -50 Descending Denver Center
Mon 11:16:56 AM 39.3933 -106.6369 54° Northeast 420 483 35,000  Level Denver Center
Mon 11:17:56 AM 39.4664 -106.5056 55° Northeast 427 491 35,000  Level Denver Center
Mon 11:18:56 AM 39.5372 -106.3764 56° Northeast 434 499 35,000  Level Denver Center
Mon 11:19:56 AM 39.6058 -106.2442 57° Northeast 439 505 35,000  Level Denver Center
Mon 11:20:56 AM 39.6703 -106.1144 56° Northeast 434 499 35,000  Level Denver Center
Mon 11:21:56 AM 39.7447 -105.9708 56° Northeast 434 499 35,000  Level Denver Center
Mon 11:22:56 AM 39.8131 -105.8381 56° Northeast 434 499 35,000  Level Denver Center
Mon 11:23:56 AM 39.8808 -105.7075 56° Northeast 434 499 35,000  Level Denver Center
Mon 11:24:56 AM 39.9489 -105.5767 57° Northeast 441 507 35,000  Level Denver Center
Mon 11:25:56 AM 40.0164 -105.4431 56° Northeast 441 507 35,000  Level Denver Center
Mon 11:26:56 AM 40.0842 -105.3117 57° Northeast 441 507 35,000  Level Denver Center
Mon 11:27:56 AM 40.1514 -105.1775 56° Northeast 446 513 35,000  Level Denver Center
Mon 11:28:56 AM 40.2125 -105.0567 57° Northeast 446 513 35,000  Level Denver Center
Mon 11:29:56 AM 40.2797 -104.9219 56° Northeast 446 513 35,000  Level Denver Center
Mon 11:30:56 AM 40.3486 -104.7894 57° Northeast 446 513 35,000  Level Denver Center
Mon 11:31:56 AM 40.4156 -104.6542 56° Northeast 446 513 35,000  Level Denver Center
Mon 11:32:56 AM 40.4842 -104.5183 57° Northeast 446 513 35,000  Level Denver Center
Mon 11:33:56 AM 40.5567 -104.3689 57° Northeast 446 513 35,000  Level Denver Center
Mon 11:34:56 AM 40.6228 -104.2325 56° Northeast 441 507 35,000  Level Denver Center
Mon 11:35:56 AM 40.6892 -104.1017 58° Northeast 441 507 35,000  Level Denver Center
Mon 11:36:56 AM 40.7550 -103.9622 56° Northeast 446 513 35,000  Level Denver Center
Mon 11:37:56 AM 40.8208 -103.8308 58° Northeast 440 506 35,000  Level Denver Center
Mon 11:38:56 AM 40.8844 -103.6964 57° Northeast 440 506 35,000  Level Denver Center
Mon 11:39:56 AM 40.9500 -103.5617 59° Northeast 435 501 35,000  Level Denver Center
Mon 11:40:56 AM 41.0111 -103.4242 58° Northeast 435 501 35,000  Level Denver Center
Mon 11:41:56 AM 41.0681 -103.3031 57° Northeast 431 496 35,000  Level Denver Center
Mon 11:42:56 AM 41.1333 -103.1675 58° Northeast 436 502 35,000  Level Denver Center
Mon 11:43:56 AM 41.2039 -103.0150 58° Northeast 436 502 35,000  Level Denver Center
Mon 11:44:56 AM 41.2686 -102.8789 59° Northeast 438 504 35,000  Level Denver Center
Mon 11:45:56 AM 41.3250 -102.7542 57° Northeast 438 504 35,000  Level Denver Center
Mon 11:46:56 AM 41.3972 -102.6033 58° Northeast 438 504 35,000  Level Denver Center
Mon 11:47:56 AM 41.4614 -102.4639 59° Northeast 433 498 35,000  Level Denver Center
Mon 11:48:56 AM 41.5253 -102.3239 58° Northeast 439 505 35,000  Level Denver Center
Mon 11:49:56 AM 41.5814 -102.2036 58° Northeast 439 505 35,000  Level Denver Center
Mon 11:50:56 AM 41.6528 -102.0489 58° Northeast 439 505 35,000  Level Denver Center
Mon 11:51:56 AM 41.7183 -101.9108 59° Northeast 439 505 35,000  Level Denver Center
Mon 11:52:56 AM 41.7814 -101.7700 60° Northeast 439 505 35,000  Level Denver Center
Mon 11:53:56 AM 41.8367 -101.6433 58° Northeast 439 505 35,000  Level Denver Center
Mon 11:54:56 AM 41.9017 -101.5017 59° Northeast 439 505 35,000  Level Denver Center
Mon 11:55:56 AM 41.9739 -101.3425 59° Northeast 444 511 35,000  Level Denver Center
Mon 11:56:56 AM 42.0344 -101.2061 59° Northeast 437 503 35,000  Level Denver Center
Mon 11:57:56 AM 42.0894 -101.0814 59° Northeast 437 503 35,000  Level Denver Center
Mon 11:58:56 AM 42.1536 -100.9386 59° Northeast 437 503 35,000  Level Denver Center
Mon 11:59:56 AM 42.2214 -100.7869 60° Northeast 437 503 35,000  Level Denver Center
Mon 12:00:56 PM 42.2828 -100.6411 59° Northeast 442 509 35,000  Level Denver Center
Mon 12:01:56 PM 42.3389 -100.5122 58° Northeast 442 509 35,000  Level Denver Center
Mon 12:02:56 PM 42.4008 -100.3769 60° Northeast 442 509 35,000  Level Denver Center
Mon 12:05:08 PM 42.5328 -100.0644 59° Northeast 434 499 35,000  Level Minneapolis Center
Mon 12:06:08 PM 42.5956 -99.9219 60° Northeast 429 494 35,000  Level Minneapolis Center
Mon 12:07:08 PM 42.6583 -99.7761 61° Northeast 434 499 35,000  Level Minneapolis Center
Mon 12:08:08 PM 42.7186 -99.6297 59° Northeast 434 499 35,000  Level Minneapolis Center
Mon 12:09:09 PM 42.7808 -99.4864 60° Northeast 434 499 35,000  Level Minneapolis Center
Mon 12:10:08 PM 42.8383 -99.3478 61° Northeast 434 499 35,000  Level Minneapolis Center
Mon 12:11:08 PM 42.8983 -99.1978 60° Northeast 434 499 35,000  Level Minneapolis Center
Mon 12:12:08 PM 42.9600 -99.0533 62° Northeast 434 499 35,000  Level Minneapolis Center
Mon 12:13:08 PM 43.0269 -98.8833 63° Northeast 452 520 35,000  Level Minneapolis Center
Mon 12:14:09 PM 43.0819 -98.7378 59° Northeast 447 514 35,000  Level Minneapolis Center
Mon 12:15:08 PM 43.1450 -98.5925 63° Northeast 437 503 35,000  Level Minneapolis Center
Mon 12:16:08 PM 43.1950 -98.4572 60° Northeast 437 503 35,000  Level Minneapolis Center
Mon 12:17:09 PM 43.2556 -98.3142 63° Northeast 437 503 35,000  Level Minneapolis Center
Mon 12:18:08 PM 43.3100 -98.1675 58° Northeast 437 503 35,000  Level Minneapolis Center
Mon 12:19:08 PM 43.3744 -98.0239 63° Northeast 437 503 35,000  Level Minneapolis Center
Mon 12:20:08 PM 43.4306 -97.8739 62° Northeast 437 503 35,000  Level Minneapolis Center
Mon 12:21:08 PM 43.4883 -97.7267 61° Northeast 437 503 35,000  Level Minneapolis Center
Mon 12:22:08 PM 43.5528 -97.5681 61° Northeast 437 503 35,000  Level Minneapolis Center
Mon 12:23:08 PM 43.6122 -97.4175 64° Northeast 437 503 35,000  Level Minneapolis Center
Mon 12:24:08 PM 43.6656 -97.2689 61° Northeast 437 503 35,000  Level Minneapolis Center
Mon 12:25:09 PM 43.7244 -97.1233 61° Northeast 437 503 35,000  Level Minneapolis Center
Mon 12:26:08 PM 43.7836 -96.9747 63° Northeast 437 503 35,000  Level Minneapolis Center
Mon 12:27:08 PM 43.8381 -96.8283 63° Northeast 432 497 35,000  Level Minneapolis Center
Mon 12:28:08 PM 43.8925 -96.6817 62° Northeast 427 491 35,000  Level Minneapolis Center
Mon 12:29:08 PM 43.9419 -96.5517 62° Northeast 427 491 35,000  Level Minneapolis Center
Mon 12:30:08 PM 43.9981 -96.4047 63° Northeast 422 486 35,000  Level Minneapolis Center
Mon 12:31:08 PM 44.0519 -96.2572 63° Northeast 422 486 35,000  Level Minneapolis Center
Mon 12:32:08 PM 44.1078 -96.1067 62° Northeast 422 486 35,000  Level Minneapolis Center
Mon 12:33:09 PM 44.1697 -95.9447 62° Northeast 427 491 35,000 -350 Level Minneapolis Center
Mon 12:34:08 PM 44.2183 -95.8164 63° Northeast 417 480 34,300 -857 Descending Minneapolis Center
Mon 12:35:08 PM 44.2714 -95.6736 63° Northeast 417 480 33,300 -1,000 Descending Minneapolis Center
Mon 12:36:08 PM 44.3264 -95.5219 63° Northeast 417 480 32,300 -1,000 Descending Minneapolis Center
Mon 12:37:08 PM 44.3789 -95.3758 63° Northeast 423 487 31,300 -1,686 Descending Minneapolis Center
Mon 12:38:09 PM 44.4336 -95.2264 67° East 423 487 28,900 -2,450 Descending Minneapolis Center
Mon 12:39:08 PM 44.4775 -95.0794 71° East 418 481 26,400 -2,521 Descending Minneapolis Center
Mon 12:40:08 PM 44.5150 -94.9292 72° East 413 475 23,900 -2,500 Descending Minneapolis Center
Mon 12:41:08 PM 44.5525 -94.7700 73° East 400 460 21,400 -2,430 Descending Minneapolis Center
Mon 12:42:09 PM 44.5833 -94.6278 71° East 385 443 19,000 -2,281 Descending Minneapolis Center
Mon 12:43:09 PM 44.6158 -94.4944 70° East 361 415 16,800 -2,272 Descending Minneapolis Center
Mon 12:43:52 PM 44.6411 -94.3981 72° East 362 417 15,100 -2,386 Descending FAA TRACON SMA TRACON (SMA)
Mon 12:44:32 PM 44.6619 -94.3061 72° East 357 411 13,500 -2,313 Descending FAA TRACON SMA TRACON (SMA)
Mon 12:45:15 PM 44.6822 -94.2156 72° East 351 404 11,900 -1,926 Descending FAA TRACON SMA TRACON (SMA)
Mon 12:45:53 PM 44.7003 -94.1364 74° East 344 396 10,900 -769 Descending FAA TRACON SMA TRACON (SMA)
Mon 12:46:33 PM 44.7189 -94.0475 73° East 343 395 10,900  Level FAA TRACON SMA TRACON (SMA)
Mon 12:47:13 PM 44.7364 -93.9686 73° East 344 396 10,900  Level FAA TRACON SMA TRACON (SMA)
Mon 12:47:53 PM 44.7556 -93.8803 73° East 340 391 10,900  Level FAA TRACON SMA TRACON (SMA)
Mon 12:48:32 PM 44.7744 -93.7928 72° East 338 389 10,900  Level FAA TRACON SMA TRACON (SMA)
Mon 12:49:12 PM 44.7922 -93.7153 73° East 337 388 10,900  Level FAA TRACON SMA TRACON (SMA)
Mon 12:49:52 PM 44.8114 -93.6283 73° East 337 388 10,900 -150 Level FAA TRACON SMA TRACON (SMA)
Mon 12:50:32 PM 44.8303 -93.5408 73° East 336 387 10,700 -519 Descending FAA TRACON SMA TRACON (SMA)
Mon 12:51:13 PM 44.8464 -93.4675 80° East 318 366 10,200 -889 Descending FAA TRACON SMA TRACON (SMA)
Mon 12:51:53 PM 44.8561 -93.3906 123° Southeast 293 337 9,500 -1,200 Descending FAA TRACON SMA TRACON (SMA)
Mon 12:52:33 PM 44.8250 -93.3239 167° South 299 344 8,600 -975 Descending FAA TRACON SMA TRACON (SMA)
Mon 12:53:13 PM 44.7739 -93.3069 178° South 273 314 8,200 -750 Descending FAA TRACON SMA TRACON (SMA)
Mon 12:53:53 PM 44.7306 -93.3044 179° South 253 291 7,600 -1,215 Descending FAA TRACON SMA TRACON (SMA)
Mon 12:54:32 PM 44.6828 -93.3028 162° South 248 285 6,600 -1,367 Descending FAA TRACON SMA TRACON (SMA)
Mon 12:55:12 PM 44.6442 -93.2847 88° East 252 290 5,800 -1,350 Descending FAA TRACON SMA TRACON (SMA)
Mon 12:55:52 PM 44.6458 -93.2300 18° North 235 270 4,800 -1,333 Descending FAA TRACON SMA TRACON (SMA)
Mon 12:56:33 PM 44.6811 -93.2139 14° North 193 222 4,000 -815 Descending FAA TRACON SMA TRACON (SMA)
Mon 12:57:13 PM 44.7189 -93.2006 352° North 202 232 3,700 -675 Descending FAA TRACON SMA TRACON (SMA)
Mon 12:57:53 PM 44.7517 -93.2067 350° North 194 223 3,100 -975 Descending FAA TRACON SMA TRACON (SMA)
Mon 12:58:33 PM 44.7850 -93.2150 349° North 174 200 2,400 -963 Descending FAA TRACON SMA TRACON (SMA)
Mon 12:59:14 PM 44.8133 -93.2225 349° North 145 167 1,800 -759 Descending FAA TRACON SMA TRACON (SMA)
Mon 12:59:52 PM 44.8364 -93.2289 350° North 138 159 1,400 -608 Descending FAA TRACON SMA TRACON (SMA)
Mon 01:00:33 PM 44.8572 -93.2342 350° North 140 161 1,000 -585 Descending FAA TRACON SMA TRACON (SMA)

Login

Don't have an account? Register now (free) for customized features, flight alerts, and more!